createdAt,value
2019-01-09T00:02:01.499Z,100204.00
2019-01-09T00:04:30.687Z,100207.47
2019-01-09T00:07:00.221Z,100214.23
2019-01-09T00:09:29.454Z,100220.69
2019-01-09T00:11:58.650Z,100221.89
2019-01-09T00:14:28.222Z,100227.95
2019-01-09T00:16:57.429Z,100235.69
2019-01-09T00:19:26.627Z,100238.19
2019-01-09T00:21:56.238Z,100242.05
2019-01-09T00:24:37.555Z,100243.34
2019-01-09T00:27:07.112Z,100257.85
2019-01-09T00:29:36.302Z,100260.92
2019-01-09T00:32:05.501Z,100267.37
2019-01-09T00:34:35.003Z,100264.80
2019-01-09T00:37:04.201Z,100278.98
2019-01-09T00:39:33.405Z,100282.06
2019-01-09T00:42:02.754Z,100290.20
2019-01-09T00:44:31.982Z,100283.75
2019-01-09T00:47:01.180Z,100290.92
2019-01-09T00:52:11.989Z,100304.31
2019-01-09T00:54:41.200Z,100311.56
2019-01-09T00:57:10.408Z,100313.66
2019-01-09T00:59:39.883Z,100320.91
2019-01-09T01:02:47.161Z,100320.42
2019-01-09T01:05:54.626Z,100337.69
2019-01-09T01:09:01.919Z,100339.69
2019-01-09T01:12:09.287Z,100346.63
2019-01-09T01:15:16.527Z,100347.03
2019-01-09T01:18:24.038Z,100360.92
2019-01-09T01:21:14.769Z,100366.97
2019-01-09T01:24:22.339Z,100378.18
2019-01-09T01:27:00.153Z,100385.52
2019-01-09T01:30:08.402Z,100390.20
2019-01-09T01:33:00.862Z,100395.36
2019-01-09T01:36:08.445Z,100402.61
2019-01-09T01:39:15.688Z,100407.38
2019-01-09T01:42:23.186Z,100422.06
2019-01-09T01:45:24.054Z,100414.72
2019-01-09T01:48:31.672Z,100420.28
2019-01-09T01:51:23.063Z,100425.44
2019-01-09T01:54:30.421Z,100427.63
2019-01-09T01:57:16.948Z,100437.05
2019-01-09T02:00:24.890Z,100441.02
2019-01-09T02:03:08.376Z,100448.85
2019-01-09T02:06:03.903Z,100448.94
2019-01-09T02:09:10.422Z,100459.36
2019-01-09T02:12:18.486Z,100460.83
2019-01-09T02:15:14.733Z,100452.29
2019-01-09T02:21:33.170Z,100476.02
2019-01-09T02:24:29.407Z,100475.70
2019-01-09T02:27:24.242Z,100480.87
2019-01-09T02:30:31.570Z,100482.95
2019-01-09T02:33:01.205Z,100490.30
2019-01-09T02:35:30.403Z,100493.69
2019-01-09T02:37:59.634Z,100497.16
2019-01-09T02:40:28.936Z,100510.86
2019-01-09T02:42:58.153Z,100518.61
2019-01-09T02:48:02.728Z,100519.98
2019-01-09T02:50:31.957Z,100520.98
2019-01-09T02:53:01.155Z,100522.36
2019-01-09T02:55:49.716Z,100519.77
2019-01-09T02:58:18.893Z,100536.86
2019-01-09T03:00:48.132Z,100545.20
2019-01-09T03:03:17.483Z,100549.47
2019-01-09T03:05:46.683Z,100555.52
2019-01-09T03:08:15.864Z,100556.81
2019-01-09T03:10:45.284Z,100564.95
2019-01-09T03:13:14.492Z,100560.28
2019-01-09T03:15:43.685Z,100571.11
2019-01-09T03:18:13.165Z,100576.27
2019-01-09T03:20:42.350Z,100582.23
2019-01-09T03:23:11.541Z,100588.69
2019-01-09T03:25:41.058Z,100592.16
2019-01-09T03:28:10.351Z,100593.05
2019-01-09T03:30:39.545Z,100598.61
2019-01-09T03:33:09.301Z,100594.25
2019-01-09T03:35:38.568Z,100605.87
2019-01-09T03:38:07.761Z,100605.38
2019-01-09T03:40:37.101Z,100607.46
2019-01-09T03:43:06.282Z,100618.19
2019-01-09T03:45:35.474Z,100630.70
2019-01-09T03:48:05.067Z,100635.77
2019-01-09T03:50:34.264Z,100635.36
2019-01-09T03:53:03.466Z,100641.91
2019-01-09T03:55:32.968Z,100649.96
2019-01-09T03:58:02.198Z,100649.96
2019-01-09T04:00:31.384Z,100653.34
2019-01-09T04:03:00.736Z,100651.06
2019-01-09T04:05:29.943Z,100627.17
2019-01-09T04:07:59.161Z,100662.67
2019-01-09T04:10:28.562Z,100657.91
2019-01-09T04:12:58.042Z,100669.93
2019-01-09T04:15:27.230Z,100668.64
2019-01-09T04:17:56.563Z,100675.98
2019-01-09T04:20:25.759Z,100683.63
2019-01-09T04:22:54.983Z,100684.42
2019-01-09T04:25:24.340Z,100691.67
2019-01-09T04:27:53.623Z,100692.17
2019-01-09T04:30:22.910Z,100693.06
2019-01-09T04:32:52.464Z,100699.13
2019-01-09T04:35:21.668Z,100706.07
2019-01-09T04:37:50.905Z,100718.98
2019-01-09T04:40:20.362Z,100713.81
2019-01-09T04:42:49.578Z,100715.60
2019-01-09T04:45:18.850Z,100720.77
2019-01-09T04:50:23.601Z,100733.08
2019-01-09T04:52:52.866Z,100737.34
2019-01-09T04:55:24.256Z,100737.75
2019-01-09T04:57:53.551Z,100742.41
2019-01-09T05:00:42.170Z,100746.09
2019-01-09T05:03:11.370Z,100742.12
2019-01-09T05:05:40.581Z,100754.12
2019-01-09T05:08:09.901Z,100759.78
2019-01-09T05:10:39.127Z,100762.87
2019-01-09T05:13:08.317Z,100767.63
2019-01-09T05:18:13.038Z,100780.64
2019-01-09T05:20:42.296Z,100783.72
2019-01-09T05:23:11.534Z,100780.64
2019-01-09T05:25:40.878Z,100797.72
2019-01-09T05:28:10.095Z,100795.83
2019-01-09T05:33:28.395Z,100802.77
2019-01-09T05:35:57.652Z,100801.58
2019-01-09T05:38:26.861Z,100807.73
2019-01-09T05:40:56.195Z,100815.19
2019-01-09T05:43:25.397Z,100820.05
2019-01-09T05:45:55.048Z,100818.56
2019-01-09T05:48:24.616Z,100825.62
2019-01-09T05:50:53.817Z,100799.99
2019-01-09T05:53:23.023Z,100829.39
2019-01-09T05:55:52.400Z,100829.89
2019-01-09T05:58:21.658Z,100833.47
2019-01-09T06:00:50.857Z,100840.81
2019-01-09T06:03:20.296Z,100835.66
2019-01-09T06:06:08.674Z,100848.96
2019-01-09T06:08:38.160Z,100852.14
2019-01-09T06:11:07.364Z,100854.33
2019-01-09T06:13:36.575Z,100857.41
2019-01-09T06:16:08.675Z,100858.70
2019-01-09T06:18:37.854Z,100859.98
2019-01-09T06:21:07.074Z,100877.56
2019-01-09T06:23:36.514Z,100885.31
2019-01-09T06:26:05.711Z,100893.16
2019-01-09T06:28:34.906Z,100895.74
2019-01-09T06:31:04.258Z,100900.51
2019-01-09T06:36:21.960Z,100916.40
2019-01-09T06:38:51.166Z,100913.22
2019-01-09T06:44:50.324Z,100917.38
2019-01-09T06:47:38.519Z,100930.30
2019-01-09T06:50:12.027Z,100932.37
2019-01-09T06:52:41.226Z,100939.23
2019-01-09T06:55:10.435Z,100940.02
2019-01-09T06:57:39.923Z,100949.05
2019-01-09T07:00:10.243Z,100959.78
2019-01-09T07:02:40.270Z,100957.70
2019-01-09T07:05:09.770Z,100968.81
2019-01-09T07:07:38.968Z,100971.00
2019-01-09T07:10:08.227Z,100967.92
2019-01-09T07:15:54.043Z,100976.27
2019-01-09T07:21:25.037Z,100987.89
2019-01-09T07:23:54.267Z,100987.39
2019-01-09T07:26:23.467Z,100998.11
2019-01-09T07:28:53.018Z,100998.11
2019-01-09T07:31:22.225Z,101007.05
2019-01-09T07:33:51.560Z,101008.73
2019-01-09T07:36:20.903Z,101014.29
2019-01-09T07:38:50.239Z,101016.87
2019-01-09T07:41:19.542Z,101016.66
2019-01-09T07:44:09.205Z,101017.13
2019-01-09T07:46:39.584Z,101022.48
2019-01-09T07:49:09.342Z,101037.97
2019-01-09T07:51:38.950Z,101032.02
2019-01-09T07:54:08.160Z,101031.91
2019-01-09T07:56:37.386Z,101041.34
2019-01-09T07:59:07.173Z,101034.95
2019-01-09T08:01:36.395Z,101044.78
2019-01-09T08:04:05.849Z,101051.13
2019-01-09T08:06:58.216Z,101062.34
2019-01-09T08:09:39.326Z,101059.09
2019-01-09T08:12:08.457Z,101058.98
2019-01-09T08:14:37.673Z,101071.09
2019-01-09T08:17:06.862Z,101073.67
2019-01-09T08:19:36.585Z,101073.89
2019-01-09T08:22:05.775Z,101074.00
2019-01-09T08:24:35.017Z,101088.02
2019-01-09T08:27:04.436Z,101085.15
2019-01-09T08:29:33.644Z,101089.63
2019-01-09T08:32:03.002Z,101098.88
2019-01-09T08:34:32.475Z,101103.36
2019-01-09T08:37:01.660Z,101095.83
2019-01-09T08:39:30.958Z,101100.20
2019-01-09T08:42:00.362Z,101108.95
2019-01-09T08:44:29.567Z,101119.79
2019-01-09T08:46:58.772Z,101119.11
2019-01-09T08:49:28.083Z,101121.69
2019-01-09T08:51:57.656Z,101126.06
2019-01-09T08:54:26.852Z,101129.65
2019-01-09T08:56:56.206Z,101124.87
2019-01-09T08:59:25.421Z,101135.71
2019-01-09T09:01:54.605Z,101134.53
2019-01-09T09:04:23.946Z,101144.47
2019-01-09T09:06:53.156Z,101152.21
2019-01-09T09:12:18.190Z,101158.20
2019-01-09T09:14:47.761Z,101166.45
2019-01-09T09:17:16.970Z,101159.70
2019-01-09T09:19:46.390Z,101165.48
2019-01-09T09:27:59.462Z,101179.30
2019-01-09T09:30:28.652Z,101182.06
2019-01-09T09:32:57.845Z,101181.38
2019-01-09T09:35:27.310Z,101188.16
2019-01-09T09:37:56.593Z,101191.24
2019-01-09T09:40:26.007Z,101189.66
2019-01-09T09:42:55.462Z,101189.59
2019-01-09T09:45:24.663Z,101189.79
2019-01-09T09:47:53.869Z,101198.94
2019-01-09T09:50:23.404Z,101198.11
2019-01-09T09:52:52.587Z,101202.53
2019-01-09T09:55:22.055Z,101203.74
2019-01-09T09:57:51.667Z,101206.73
2019-01-09T10:00:22.031Z,101209.00
2019-01-09T10:02:51.215Z,101213.97
2019-01-09T10:05:20.542Z,101217.86
2019-01-09T10:07:49.762Z,101208.59
2019-01-09T10:10:19.061Z,101219.75
2019-01-09T10:15:44.003Z,101230.59
2019-01-09T10:18:13.221Z,101230.63
2019-01-09T10:20:42.446Z,101230.63
2019-01-09T10:23:12.412Z,101234.39
2019-01-09T10:25:41.808Z,101249.02
2019-01-09T10:28:11.291Z,101232.20
2019-01-09T10:30:40.818Z,101235.38
2019-01-09T10:33:10.003Z,101243.73
2019-01-09T10:35:39.204Z,101242.43
2019-01-09T10:38:08.533Z,101247.41
2019-01-09T10:40:39.866Z,101245.41
2019-01-09T10:43:09.193Z,101252.16
2019-01-09T10:45:38.847Z,101255.34
2019-01-09T10:48:08.280Z,101268.45
2019-01-09T10:50:37.472Z,101267.14
2019-01-09T10:53:06.719Z,101263.84
2019-01-09T10:55:36.171Z,101269.98
2019-01-09T10:58:05.804Z,101275.74
2019-01-09T11:00:35.043Z,101280.41
2019-01-09T11:06:14.532Z,101285.01
2019-01-09T11:08:47.068Z,101289.20
2019-01-09T11:11:16.011Z,101302.14
2019-01-09T11:13:45.355Z,101306.62
2019-01-09T11:16:14.615Z,101310.50
2019-01-09T11:18:43.915Z,101317.36
2019-01-09T11:21:13.136Z,101316.36
2019-01-09T11:23:42.347Z,101319.45
2019-01-09T11:26:11.808Z,101311.98
2019-01-09T11:28:41.026Z,101326.70
2019-01-09T11:31:11.599Z,101324.73
2019-01-09T11:33:41.044Z,101330.91
2019-01-09T11:36:10.283Z,101331.30
2019-01-09T11:38:39.485Z,101333.09
2019-01-09T11:41:08.939Z,101336.37
2019-01-09T11:43:38.302Z,101345.81
2019-01-09T11:46:07.603Z,101345.31
2019-01-09T11:48:37.315Z,101346.89
2019-01-09T11:51:06.527Z,101348.19
2019-01-09T11:56:24.298Z,101348.19
2019-01-09T11:58:53.506Z,101353.25
2019-01-09T12:01:22.781Z,101352.86
2019-01-09T12:03:52.717Z,101361.30
2019-01-09T12:06:21.900Z,101374.62
2019-01-09T12:08:51.190Z,101373.55
2019-01-09T12:11:20.520Z,101374.55
2019-01-09T12:13:49.792Z,101375.73
2019-01-09T12:16:18.993Z,101380.91
2019-01-09T12:18:48.403Z,101382.49
2019-01-09T12:21:17.734Z,101384.97
2019-01-09T12:23:46.964Z,101400.48
2019-01-09T12:26:16.337Z,101401.89
2019-01-09T12:28:53.377Z,101407.45
2019-01-09T12:31:16.490Z,101413.30
2019-01-09T12:33:46.154Z,101413.09
2019-01-09T12:36:15.351Z,101412.19
2019-01-09T12:38:44.957Z,101409.10
2019-01-09T12:41:14.470Z,101419.84
2019-01-09T12:43:43.687Z,101421.13
2019-01-09T12:46:12.985Z,101421.64
2019-01-09T12:48:42.338Z,101428.10
2019-01-09T12:51:11.550Z,101421.35
2019-01-09T12:53:40.748Z,101424.84
2019-01-09T12:56:10.362Z,101425.23
2019-01-09T12:58:39.552Z,101421.24
2019-01-09T13:01:27.909Z,101431.88
2019-01-09T13:03:57.111Z,101427.48
2019-01-09T13:06:26.571Z,101435.81
2019-01-09T13:08:55.985Z,101439.08
2019-01-09T13:11:25.006Z,101448.02
2019-01-09T13:13:54.243Z,101462.91
2019-01-09T13:16:23.714Z,101456.45
2019-01-09T13:18:52.984Z,101456.62
2019-01-09T13:21:22.418Z,101455.72
2019-01-09T13:23:51.775Z,101458.30
2019-01-09T13:26:21.003Z,101460.67
2019-01-09T13:28:50.223Z,101458.76
2019-01-09T13:31:59.643Z,101460.33
2019-01-09T13:34:28.836Z,101470.95
2019-01-09T13:36:58.241Z,101466.45
2019-01-09T13:39:30.860Z,101472.52
2019-01-09T13:42:05.202Z,101473.70
2019-01-09T13:44:34.492Z,101472.80
2019-01-09T13:47:04.018Z,101479.27
2019-01-09T13:49:33.286Z,101476.06
2019-01-09T13:52:02.953Z,101486.68
2019-01-09T13:54:32.138Z,101485.83
2019-01-09T13:57:01.340Z,101489.88
2019-01-09T13:59:30.851Z,101487.57
2019-01-09T14:02:00.346Z,101495.09
2019-01-09T14:04:29.565Z,101497.84
2019-01-09T14:06:59.174Z,101503.56
2019-01-09T14:09:28.537Z,101507.59
2019-01-09T14:11:57.749Z,101514.72
2019-01-09T14:14:46.150Z,101513.20
2019-01-09T14:20:22.660Z,101509.41
2019-01-09T14:22:51.902Z,101516.45
2019-01-09T14:25:24.363Z,101527.88
2019-01-09T14:27:53.952Z,101528.70
2019-01-09T14:30:42.318Z,101536.98
2019-01-09T14:33:32.695Z,101534.68
2019-01-09T14:36:02.117Z,101534.68
2019-01-09T14:38:31.323Z,101542.16
2019-01-09T14:41:00.565Z,101543.84
2019-01-09T14:43:30.011Z,101544.62
2019-01-09T14:45:59.225Z,101555.21
2019-01-09T14:53:40.527Z,101564.22
2019-01-09T14:56:09.735Z,101562.33
2019-01-09T14:58:38.945Z,101568.41
2019-01-09T15:01:08.420Z,101563.13
2019-01-09T15:03:37.761Z,101565.20
2019-01-09T15:06:07.104Z,101570.87
2019-01-09T15:08:36.780Z,101570.20
2019-01-09T15:11:05.971Z,101573.42
2019-01-09T15:13:38.440Z,101570.45
2019-01-09T15:16:07.746Z,101583.36
2019-01-09T15:18:36.957Z,101585.94
2019-01-09T15:21:06.410Z,101590.05
2019-01-09T15:23:35.658Z,101597.52
2019-01-09T15:26:04.983Z,101597.89
2019-01-09T15:28:34.262Z,101593.36
2019-01-09T15:33:40.790Z,101604.17
2019-01-09T15:36:10.317Z,101615.25
2019-01-09T15:38:39.476Z,101610.20
2019-01-09T15:41:28.657Z,101617.69
2019-01-09T15:43:57.908Z,101620.14
2019-01-09T15:46:27.101Z,101617.95
2019-01-09T15:48:56.597Z,101620.80
2019-01-09T15:51:26.739Z,101625.30
2019-01-09T15:53:55.964Z,101625.81
2019-01-09T15:56:25.374Z,101625.67
2019-01-09T15:58:54.570Z,101627.86
2019-01-09T16:01:23.752Z,101629.16
2019-01-09T16:03:53.121Z,101632.52
2019-01-09T16:06:22.340Z,101632.63
2019-01-09T16:08:51.541Z,101631.34
2019-01-09T16:11:20.943Z,101635.61
2019-01-09T16:13:50.152Z,101637.68
2019-01-09T16:16:19.351Z,101637.68
2019-01-09T16:18:49.080Z,101641.42
2019-01-09T16:21:18.277Z,101649.56
2019-01-09T16:23:47.490Z,101652.53
2019-01-09T16:26:16.843Z,101651.13
2019-01-09T16:28:46.091Z,101649.59
2019-01-09T16:34:30.967Z,101666.25
2019-01-09T16:37:00.618Z,101661.47
2019-01-09T16:39:49.114Z,101662.88
2019-01-09T16:42:21.567Z,101666.22
2019-01-09T16:44:50.890Z,101672.67
2019-01-09T16:47:22.445Z,101672.92
2019-01-09T16:49:52.985Z,101669.97
2019-01-09T16:52:22.993Z,101675.28
2019-01-09T16:54:52.219Z,101683.05
2019-01-09T16:57:21.567Z,101678.94
2019-01-09T16:59:51.200Z,101680.39
2019-01-09T17:02:20.471Z,101695.11
2019-01-09T17:04:49.675Z,101693.84
2019-01-09T17:07:19.512Z,101691.66
2019-01-09T17:09:48.767Z,101683.03
2019-01-09T17:12:17.967Z,101689.73
2019-01-09T17:15:06.531Z,101687.16
2019-01-09T17:17:35.730Z,101689.48
2019-01-09T17:20:44.419Z,101697.47
2019-01-09T17:26:20.934Z,101698.76
2019-01-09T17:28:50.145Z,101697.22
2019-01-09T17:31:19.354Z,101701.88
2019-01-09T17:33:50.555Z,101698.91
2019-01-09T17:39:09.335Z,101698.80
2019-01-09T17:41:38.544Z,101699.97
2019-01-09T17:44:07.754Z,101703.70
2019-01-09T17:46:37.279Z,101702.20
2019-01-09T17:54:35.824Z,101705.94
2019-01-09T18:00:00.405Z,101695.11
2019-01-09T18:02:49.311Z,101702.59
2019-01-09T18:08:10.921Z,101600.27
2019-01-09T18:10:38.742Z,101708.89
2019-01-09T18:13:09.725Z,101711.73
2019-01-09T18:18:27.461Z,101722.30
2019-01-09T18:24:05.459Z,101726.16
2019-01-09T18:26:36.721Z,101719.83
2019-01-09T18:29:25.053Z,101727.69
2019-01-09T18:32:32.346Z,101724.84
2019-01-09T18:35:39.744Z,101722.91
2019-01-09T18:38:47.057Z,101724.45
2019-01-09T18:41:54.710Z,101731.14
2019-01-09T18:45:01.994Z,101742.34
2019-01-09T18:48:10.021Z,101737.05
2019-01-09T18:51:17.298Z,101740.78
2019-01-09T18:54:06.501Z,101742.20
2019-01-09T18:56:35.685Z,101746.72
2019-01-09T18:59:05.113Z,101750.20
2019-01-09T19:01:34.415Z,101744.14
2019-01-09T19:06:51.999Z,101757.39
2019-01-09T19:09:21.491Z,101760.47
2019-01-09T19:11:53.925Z,101758.53
2019-01-09T19:14:25.577Z,101765.48
2019-01-09T19:16:54.972Z,101757.38
2019-01-09T19:19:45.738Z,101770.12
2019-01-09T19:22:17.113Z,101762.66
2019-01-09T19:27:34.976Z,101771.32
2019-01-09T19:30:43.571Z,101779.06
2019-01-09T19:33:13.108Z,101781.14
2019-01-09T19:35:42.313Z,101776.12
2019-01-09T19:41:18.813Z,101781.91
2019-01-09T19:43:48.017Z,101790.27
2019-01-09T19:46:17.267Z,101786.16
2019-01-09T19:48:46.805Z,101791.44
2019-01-09T19:51:55.381Z,101792.86
2019-01-09T19:54:24.770Z,101796.20
2019-01-09T19:56:53.971Z,101796.72
2019-01-09T19:59:23.188Z,101802.13
2019-01-09T20:01:52.558Z,101812.44
2019-01-09T20:04:21.770Z,101812.56
2019-01-09T20:06:50.983Z,101822.63
2019-01-09T20:09:22.461Z,101819.66
2019-01-09T20:11:51.677Z,101826.23
2019-01-09T20:14:20.952Z,101793.47
2019-01-09T20:16:50.373Z,101821.35
2019-01-09T20:22:08.244Z,101815.93
2019-01-09T20:24:37.404Z,101814.51
2019-01-09T20:27:06.703Z,101810.13
2019-01-09T20:29:36.107Z,101821.31
2019-01-09T20:32:05.349Z,101832.12
2019-01-09T20:34:34.536Z,101832.89
2019-01-09T20:37:04.106Z,101834.83
2019-01-09T20:39:33.355Z,101835.22
2019-01-09T20:42:02.387Z,101830.45
2019-01-09T20:44:32.020Z,101832.26
2019-01-09T20:47:01.259Z,101834.45
2019-01-09T20:49:30.467Z,101833.55
2019-01-09T20:52:02.403Z,101837.93
2019-01-09T20:57:20.915Z,101848.23
2019-01-09T20:59:50.128Z,101841.93
2019-01-09T21:02:19.411Z,101840.77
2019-01-09T21:04:50.511Z,101844.64
2019-01-09T21:07:20.083Z,101845.52
2019-01-09T21:09:49.758Z,101849.88
2019-01-09T21:12:59.006Z,101848.30
2019-01-09T21:15:28.459Z,101848.91
2019-01-09T21:17:57.744Z,101852.23
2019-01-09T21:20:27.074Z,101857.63
2019-01-09T21:22:56.568Z,101858.01
2019-01-09T21:28:33.177Z,101862.34
2019-01-09T21:31:02.377Z,101863.21
2019-01-09T21:33:31.673Z,101854.28
2019-01-09T21:36:00.995Z,101853.72
2019-01-09T21:38:30.295Z,101860.50
2019-01-09T21:40:59.755Z,101862.03
2019-01-09T21:43:29.350Z,101860.99
2019-01-09T21:45:58.604Z,101866.00
2019-01-09T21:48:27.917Z,101871.25
2019-01-09T21:50:57.282Z,101879.73
2019-01-09T21:56:14.796Z,101870.55
2019-01-09T21:58:44.117Z,101875.66
2019-01-09T22:01:13.326Z,101871.41
2019-01-09T22:03:42.645Z,101882.37
2019-01-09T22:06:31.011Z,101862.69
2019-01-09T22:09:00.431Z,101869.75
2019-01-09T22:11:37.407Z,101863.66
2019-01-09T22:14:06.917Z,101862.86
2019-01-09T22:16:36.134Z,101860.37
2019-01-09T22:19:11.871Z,101862.19
2019-01-09T22:21:36.560Z,101858.09
2019-01-09T22:24:05.989Z,101861.43
2019-01-09T22:26:54.398Z,101866.05
2019-01-09T22:29:23.678Z,101864.09
2019-01-09T22:31:53.001Z,101868.05
2019-01-09T22:34:22.523Z,101864.81
2019-01-09T22:36:51.743Z,101859.63
2019-01-09T22:39:20.986Z,101863.06
2019-01-09T22:41:50.517Z,101858.92
2019-01-09T22:44:19.738Z,101864.16
2019-01-09T22:46:48.969Z,101859.21
2019-01-09T22:49:18.559Z,101866.26
2019-01-09T22:51:47.790Z,101865.06
2019-01-09T22:54:17.026Z,101866.83
2019-01-09T22:56:46.632Z,101867.44
2019-01-09T22:59:15.968Z,101868.06
2019-01-09T23:01:45.217Z,101874.48
2019-01-09T23:04:15.047Z,101878.34
2019-01-09T23:06:44.284Z,101879.53
2019-01-09T23:09:13.516Z,101879.06
2019-01-09T23:11:43.051Z,101882.53
2019-01-09T23:14:12.297Z,101880.73
2019-01-09T23:16:41.865Z,101886.91
2019-01-09T23:22:06.447Z,101880.34
2019-01-09T23:25:15.027Z,101885.16
2019-01-09T23:27:45.205Z,101886.88
2019-01-09T23:33:29.167Z,101885.63
2019-01-09T23:39:30.019Z,101891.44
2019-01-09T23:41:59.238Z,101886.44
2019-01-09T23:44:28.465Z,101885.48
2019-01-09T23:46:57.947Z,101884.39
2019-01-09T23:49:27.142Z,101889.34
2019-01-09T23:51:56.368Z,101888.25
2019-01-09T23:54:25.817Z,101885.62
2019-01-09T23:56:55.048Z,101890.05
2019-01-09T23:59:43.391Z,101902.84
